Terminal Aerodrome Forecast
Issued by NWS

Home | Current Version | Previous Version | Text Only | Print | Product List | Glossary On
Versions: 1 2 3 4 5 6 7 8 9 10 11 12 13 14 15 16 17 18 19 20 21 22 23 24 25 26 27 28 29
000
FTUS41 KBUF 261700
TAFIAG
TAF
KIAG 261720Z 2618/2718 28004KT 3/4SM -SN BR OVC003
     FM262100 24004KT 2SM -SN OVC025
     FM262200 24005KT 3SM -SN OVC025
     FM270000 23007KT P6SM OVC025
     FM270200 24007KT P6SM BKN035
     FM271100 27005KT 6SM -SN BKN035
     FM271400 31007KT 3SM -SN BKN035
     FM271600 33009KT 2SM -SN BKN025=

USA.gov is the U.S. government's official web portal to all federal, state and local government web resources and services.